Time;durP1;ratioP1;P1;durP2;ratioP2;P2;SDS_P1;SDS_P2;PMS_P1;PMS_P2;Temp;Humidity;BMP_temperature;BMP_pressure;BME280_temperature;BME280_humidity;BME280_pressure;Samples;Min_cycle;Max_cycle;Signal;HPM_P1;HPM_P2
2023/08/13 00:00:08;;;;;;;5.70;4.80;;;;;;;25.56;36.85;101043.33;104292;1291;69418;-87
2023/08/13 00:02:36;;;;;;;7.10;5.00;;;;;;;25.55;36.76;101045.65;104133;1287;69426;-88
2023/08/13 00:05:03;;;;;;;7.40;4.60;;;;;;;25.55;36.73;101046.33;104054;1290;69139;-87
2023/08/13 00:09:56;;;;;;;6.20;4.30;;;;;;;25.54;37.02;101045.52;104784;1281;69646;-88
2023/08/13 00:12:22;;;;;;;6.50;4.30;;;;;;;25.54;36.89;101043.80;104471;1289;69255;-88
2023/08/13 00:14:48;;;;;;;6.80;5.00;;;;;;;25.55;36.81;101043.80;104654;1284;69256;-87
2023/08/13 00:17:13;;;;;;;5.00;4.30;;;;;;;25.54;36.87;101044.32;104550;1285;69314;-88
2023/08/13 00:19:39;;;;;;;6.50;4.40;;;;;;;25.54;37.01;101042.77;104616;1285;69265;-88
2023/08/13 00:22:04;;;;;;;8.30;4.60;;;;;;;25.53;36.80;101040.52;104273;1285;69144;-88
2023/08/13 00:24:30;;;;;;;6.90;4.80;;;;;;;25.53;37.03;101042.68;104646;1288;69735;-87
2023/08/13 00:26:56;;;;;;;7.00;4.70;;;;;;;25.53;36.98;101040.63;104420;1283;69247;-88
2023/08/13 00:29:22;;;;;;;7.80;4.80;;;;;;;25.53;36.83;101042.23;104650;1284;69190;-88
2023/08/13 00:31:48;;;;;;;5.10;4.50;;;;;;;25.52;36.88;101041.00;104735;1284;69275;-88
2023/08/13 00:34:13;;;;;;;6.00;5.00;;;;;;;25.53;36.77;101043.34;104288;1290;69579;-88
2023/08/13 00:36:39;;;;;;;4.90;4.40;;;;;;;25.52;36.65;101044.30;104476;1288;69270;-88
2023/08/13 00:39:04;;;;;;;4.80;4.40;;;;;;;25.52;36.86;101042.13;104472;1289;69224;-87
2023/08/13 00:41:30;;;;;;;6.10;4.60;;;;;;;25.52;36.73;101038.42;104468;1284;69259;-87
2023/08/13 00:43:55;;;;;;;6.00;4.30;;;;;;;25.51;36.75;101040.23;104595;1286;69265;-88
2023/08/13 00:46:29;;;;;;;4.80;4.20;;;;;;;25.51;36.90;101039.81;104518;1286;69112;-93
2023/08/13 00:48:56;;;;;;;7.30;4.40;;;;;;;25.51;36.86;101038.64;104281;1288;69081;-88
2023/08/13 00:51:22;;;;;;;6.10;4.40;;;;;;;25.51;36.81;101038.08;104348;1288;69245;-87
2023/08/13 00:53:48;;;;;;;6.70;4.30;;;;;;;25.51;36.83;101041.13;104526;1286;69171;-88
2023/08/13 00:56:14;;;;;;;5.80;4.40;;;;;;;25.50;36.69;101040.92;104262;1291;69273;-88
2023/08/13 00:58:41;;;;;;;6.30;4.30;;;;;;;25.50;36.69;101041.95;104166;1285;69721;-88
2023/08/13 01:01:07;;;;;;;7.00;5.00;;;;;;;25.50;36.82;101041.90;104406;1286;69260;-88
2023/08/13 01:03:33;;;;;;;4.80;4.00;;;;;;;25.50;36.69;101040.19;104542;1288;69260;-88
2023/08/13 01:06:05;;;;;;;5.00;4.20;;;;;;;25.49;36.68;101042.42;104260;1287;69273;-88
2023/08/13 01:08:46;;;;;;;7.80;4.40;;;;;;;25.49;36.70;101045.10;105226;1288;73757;-88
2023/08/13 01:11:35;;;;;;;5.10;4.20;;;;;;;25.49;36.90;101050.88;104498;1287;69290;-87
2023/08/13 01:14:10;;;;;;;6.20;4.50;;;;;;;25.49;36.83;101050.98;104390;1289;69106;-88
2023/08/13 01:16:38;;;;;;;7.00;4.70;;;;;;;25.48;36.77;101050.63;104412;1288;69235;-88
2023/08/13 01:19:04;;;;;;;6.10;4.40;;;;;;;25.49;36.66;101052.79;104121;1286;69550;-88
2023/08/13 01:21:34;;;;;;;5.10;4.20;;;;;;;25.48;36.54;101058.56;104158;1292;74557;-87
2023/08/13 01:24:00;;;;;;;5.70;4.10;;;;;;;25.48;36.80;101055.88;104161;1286;67658;-87
2023/08/13 01:26:26;;;;;;;5.80;4.40;;;;;;;25.48;36.69;101057.85;104311;1289;66790;-88
2023/08/13 01:28:59;;;;;;;5.20;4.20;;;;;;;25.48;36.87;101053.56;104427;1288;70840;-87
2023/08/13 01:31:29;;;;;;;5.00;4.30;;;;;;;25.48;36.63;101054.13;104092;1290;69222;-87
2023/08/13 01:33:56;;;;;;;9.80;5.10;;;;;;;25.47;36.81;101052.17;104236;1286;74466;-88
2023/08/13 01:36:21;;;;;;;5.30;4.80;;;;;;;25.47;36.62;101055.74;104334;1287;69293;-88
2023/08/13 01:38:47;;;;;;;5.50;4.90;;;;;;;25.47;36.80;101055.32;104321;1286;69324;-87
2023/08/13 01:41:12;;;;;;;4.70;4.20;;;;;;;25.47;36.67;101055.42;104478;1289;69245;-88
2023/08/13 01:43:38;;;;;;;9.10;4.40;;;;;;;25.46;36.86;101049.26;104562;1288;69196;-88
2023/08/13 01:46:12;;;;;;;5.70;4.50;;;;;;;25.46;36.85;101047.95;104377;1286;69158;-92
2023/08/13 01:48:38;;;;;;;5.70;4.70;;;;;;;25.46;36.70;101048.93;104340;1286;69202;-88
2023/08/13 01:51:03;;;;;;;6.60;4.90;;;;;;;25.46;36.87;101052.91;104525;1286;69371;-88
2023/08/13 01:53:29;;;;;;;5.80;4.50;;;;;;;25.45;36.98;101048.59;104425;1289;67951;-88
2023/08/13 01:55:54;;;;;;;7.30;4.70;;;;;;;25.45;36.72;101042.92;104464;1286;69298;-88
2023/08/13 01:58:20;;;;;;;5.30;4.60;;;;;;;25.46;36.88;101040.55;104382;1288;69293;-88
2023/08/13 02:00:45;;;;;;;7.00;4.80;;;;;;;25.45;36.96;101041.64;104330;1286;69203;-88
2023/08/13 02:03:11;;;;;;;7.10;4.90;;;;;;;25.45;36.87;101046.80;104528;1285;69286;-88
2023/08/13 02:05:36;;;;;;;6.50;4.50;;;;;;;25.45;36.92;101045.09;104523;1286;70622;-88
2023/08/13 02:08:02;;;;;;;8.20;4.80;;;;;;;25.44;36.75;101042.20;104395;1287;69327;-87
2023/08/13 02:10:27;;;;;;;7.00;4.80;;;;;;;25.44;36.94;101041.48;104309;1288;70325;-89
2023/08/13 02:15:34;;;;;;;5.00;4.40;;;;;;;25.44;37.06;101041.45;93695;1299;558163;-88
2023/08/13 02:18:00;;;;;;;5.50;4.90;;;;;;;25.43;37.04;101046.48;104266;1285;251593;-88
2023/08/13 02:20:25;;;;;;;8.30;4.80;;;;;;;25.44;37.16;101046.75;104787;1289;69253;-88
2023/08/13 02:22:51;;;;;;;5.30;4.70;;;;;;;25.44;36.88;101044.47;104673;1289;69262;-88
2023/08/13 02:25:17;;;;;;;10.80;5.30;;;;;;;25.44;37.27;101043.91;104680;1286;69196;-88
2023/08/13 02:27:42;;;;;;;8.70;4.90;;;;;;;25.44;37.26;101042.88;104302;1286;69245;-88
2023/08/13 02:30:09;;;;;;;8.90;5.00;;;;;;;25.43;37.07;101044.27;104402;1290;69260;-88
2023/08/13 02:32:35;;;;;;;7.20;5.10;;;;;;;25.43;37.06;101044.95;104652;1284;70403;-88
2023/08/13 02:35:00;;;;;;;6.50;5.10;;;;;;;25.44;37.31;101050.81;104711;1284;69279;-88
2023/08/13 02:37:26;;;;;;;7.30;4.70;;;;;;;25.43;37.17;101048.64;104540;1286;69141;-88
2023/08/13 02:42:31;;;;;;;7.50;5.00;;;;;;;25.43;37.27;101043.19;104499;1286;69114;-88
2023/08/13 02:44:57;;;;;;;6.50;4.70;;;;;;;25.42;37.04;101044.52;104546;1285;69265;-88
2023/08/13 02:47:22;;;;;;;5.90;4.90;;;;;;;25.43;37.13;101048.39;104320;1286;69234;-88
2023/08/13 02:49:48;;;;;;;6.20;4.50;;;;;;;25.43;37.37;101053.40;104497;1286;69265;-88
2023/08/13 02:52:15;;;;;;;6.50;5.10;;;;;;;25.42;37.15;101059.95;104540;1285;69343;-89
2023/08/13 02:54:40;;;;;;;7.10;4.90;;;;;;;25.42;37.31;101063.95;104338;1290;69234;-88
2023/08/13 02:57:06;;;;;;;6.40;4.60;;;;;;;25.42;37.48;101062.35;104653;1288;69149;-88
2023/08/13 02:59:31;;;;;;;7.00;4.70;;;;;;;25.42;37.54;101063.33;104486;1289;69292;-89
2023/08/13 03:01:57;;;;;;;5.30;4.40;;;;;;;25.42;37.52;101060.08;104669;1289;69370;-88
2023/08/13 03:04:22;;;;;;;6.10;4.80;;;;;;;25.42;37.38;101058.80;104508;1288;69254;-89
2023/08/13 03:06:56;;;;;;;6.40;4.80;;;;;;;25.41;37.48;101059.83;104630;1285;67165;-93
2023/08/13 03:09:22;;;;;;;5.60;4.90;;;;;;;25.41;37.35;101058.13;104518;1285;69179;-88
2023/08/13 03:11:48;;;;;;;8.70;4.80;;;;;;;25.42;37.33;101059.31;104542;1291;69669;-88
2023/08/13 03:14:14;;;;;;;6.50;4.90;;;;;;;25.41;37.35;101060.80;104747;1286;69222;-88
2023/08/13 03:16:40;;;;;;;6.70;4.60;;;;;;;25.41;37.45;101061.79;104707;1285;69257;-88
2023/08/13 03:19:05;;;;;;;5.60;4.90;;;;;;;25.41;37.26;101058.80;104489;1290;69396;-88
2023/08/13 03:21:31;;;;;;;7.70;4.80;;;;;;;25.40;37.22;101057.48;104575;1285;69196;-88
2023/08/13 03:23:56;;;;;;;6.00;4.50;;;;;;;25.41;37.42;101063.03;104583;1286;69194;-88
2023/08/13 03:26:22;;;;;;;6.50;4.80;;;;;;;25.41;37.40;101064.73;104783;1288;69178;-88
2023/08/13 03:28:47;;;;;;;7.90;5.30;;;;;;;25.40;37.30;101066.80;104395;1285;69157;-88
2023/08/13 03:31:13;;;;;;;8.60;4.80;;;;;;;25.40;37.32;101064.38;104656;1288;69595;-88
2023/08/13 03:33:55;;;;;;;5.90;4.90;;;;;;;25.40;37.50;101068.19;104464;1291;69250;-92
2023/08/13 03:36:21;;;;;;;7.00;5.20;;;;;;;25.39;37.52;101068.40;104533;1287;69625;-88
2023/08/13 03:38:46;;;;;;;6.80;5.40;;;;;;;25.39;37.41;101064.02;104547;1285;69203;-88
2023/08/13 03:41:12;;;;;;;7.20;5.30;;;;;;;25.39;37.33;101063.55;104647;1285;69142;-88
2023/08/13 03:43:37;;;;;;;6.40;5.60;;;;;;;25.39;37.59;101067.36;104697;1285;69792;-88
2023/08/13 03:46:03;;;;;;;6.60;5.20;;;;;;;25.38;37.65;101068.31;104755;1285;69150;-89
2023/08/13 03:48:28;;;;;;;6.80;5.20;;;;;;;25.39;37.57;101070.46;104464;1285;69183;-88
2023/08/13 03:50:54;;;;;;;7.30;5.10;;;;;;;25.39;37.62;101073.98;105317;1288;69280;-88
2023/08/13 03:53:22;;;;;;;6.20;5.10;;;;;;;25.38;37.58;101070.98;105569;1286;68571;-88
2023/08/13 03:55:47;;;;;;;5.90;4.90;;;;;;;25.38;37.79;101068.32;105125;1289;69209;-88
2023/08/13 03:58:13;;;;;;;7.90;5.40;;;;;;;25.39;37.60;101068.05;104651;1285;69257;-88
2023/08/13 04:00:47;;;;;;;8.10;5.20;;;;;;;25.39;37.79;101066.34;104653;1285;69209;-93
2023/08/13 04:03:13;;;;;;;7.30;5.10;;;;;;;25.39;37.88;101066.03;104436;1286;69241;-88
2023/08/13 04:05:38;;;;;;;6.00;5.40;;;;;;;25.39;37.67;101069.28;104489;1291;69220;-88
2023/08/13 04:08:04;;;;;;;7.90;5.20;;;;;;;25.38;37.71;101073.96;104659;1285;69263;-88
2023/08/13 04:10:29;;;;;;;8.00;5.40;;;;;;;25.38;37.94;101071.97;104477;1292;69200;-88
2023/08/13 04:13:00;;;;;;;8.20;5.50;;;;;;;25.38;37.80;101072.38;104740;1286;69118;-89
2023/08/13 04:18:03;;;;;;;6.20;5.30;;;;;;;25.37;38.08;101068.63;104703;1285;69244;-88
2023/08/13 04:20:28;;;;;;;8.00;5.70;;;;;;;25.37;38.07;101072.85;104574;1290;69270;-89
2023/08/13 04:22:54;;;;;;;7.10;5.50;;;;;;;25.38;37.96;101074.48;104555;1285;69253;-88
2023/08/13 04:25:20;;;;;;;6.20;5.20;;;;;;;25.38;37.99;101072.74;105754;1286;66927;-89
2023/08/13 04:27:45;;;;;;;7.90;5.90;;;;;;;25.38;37.80;101074.18;104703;1285;69183;-89
2023/08/13 04:30:11;;;;;;;8.10;5.70;;;;;;;25.38;37.82;101076.61;104515;1288;69107;-88
2023/08/13 04:32:37;;;;;;;8.00;5.50;;;;;;;25.38;37.95;101077.02;104513;1285;69643;-88
2023/08/13 04:35:03;;;;;;;7.70;5.50;;;;;;;25.38;38.02;101082.99;104645;1291;69265;-88
2023/08/13 04:37:30;;;;;;;7.30;5.40;;;;;;;25.38;37.98;101084.80;104649;1284;69307;-88
2023/08/13 04:39:57;;;;;;;8.30;5.50;;;;;;;25.39;37.89;101091.29;104503;1285;69232;-88
2023/08/13 04:45:04;;;;;;;5.80;5.10;;;;;;;25.37;38.14;101102.73;104638;1285;73631;-88
2023/08/13 04:47:30;;;;;;;8.70;5.40;;;;;;;25.37;38.34;101101.29;104680;1285;66887;-88
2023/08/13 04:49:58;;;;;;;8.20;5.70;;;;;;;25.37;38.22;101103.44;104661;1284;68291;-87
2023/08/13 04:52:24;;;;;;;7.30;5.30;;;;;;;25.37;38.23;101105.15;104747;1285;69114;-88
2023/08/13 04:54:49;;;;;;;6.40;5.20;;;;;;;25.37;38.44;101106.12;104775;1288;66561;-88
2023/08/13 04:57:15;;;;;;;6.90;5.30;;;;;;;25.37;38.23;101103.29;104553;1285;69299;-88
2023/08/13 04:59:40;;;;;;;6.90;5.40;;;;;;;25.38;38.33;101109.83;104907;1285;69275;-88
2023/08/13 05:02:06;;;;;;;8.50;5.60;;;;;;;25.37;38.18;101110.82;105579;1283;69446;-88
2023/08/13 05:04:31;;;;;;;8.40;5.70;;;;;;;25.37;38.11;101108.95;106692;1284;67723;-88
2023/08/13 05:06:59;;;;;;;10.20;5.60;;;;;;;25.37;38.26;101106.44;106559;1285;69102;-88
2023/08/13 05:09:31;;;;;;;9.50;5.90;;;;;;;25.38;38.34;101109.10;106543;1284;66810;-93
2023/08/13 05:11:56;;;;;;;10.10;5.70;;;;;;;25.39;38.42;101107.50;104882;1285;69228;-87
2023/08/13 05:14:22;;;;;;;7.60;5.30;;;;;;;25.40;38.48;101111.52;104672;1283;70073;-88
2023/08/13 05:16:48;;;;;;;9.40;5.80;;;;;;;25.41;38.48;101111.77;105181;1284;69167;-88
2023/08/13 05:19:13;;;;;;;8.20;6.00;;;;;;;25.40;38.55;101114.70;105416;1283;69182;-88
2023/08/13 05:21:39;;;;;;;7.80;5.80;;;;;;;25.41;38.52;101115.88;104798;1285;68305;-88
2023/08/13 05:24:05;;;;;;;8.00;5.50;;;;;;;25.41;38.58;101115.67;104439;1285;69332;-87
2023/08/13 05:26:30;;;;;;;7.40;5.40;;;;;;;25.42;38.72;101116.29;104541;1285;69385;-87
2023/08/13 05:28:56;;;;;;;7.10;5.50;;;;;;;25.42;38.54;101115.89;104703;1283;69259;-88
2023/08/13 05:31:21;;;;;;;7.40;5.40;;;;;;;25.41;38.47;101112.67;104594;1285;67988;-88
2023/08/13 05:33:47;;;;;;;5.80;5.20;;;;;;;25.41;38.38;101115.25;104791;1285;69262;-87
2023/08/13 05:36:32;;;;;;;8.80;5.50;;;;;;;25.42;38.48;101115.57;104612;1288;69042;-90
2023/08/13 05:38:58;;;;;;;6.70;5.10;;;;;;;25.41;38.53;101116.34;104388;1285;73597;-88
2023/08/13 05:41:23;;;;;;;6.20;5.50;;;;;;;25.41;38.29;101114.80;104724;1284;69291;-88
2023/08/13 05:43:49;;;;;;;5.60;5.00;;;;;;;25.42;38.21;101116.28;104552;1285;69268;-88
2023/08/13 05:46:14;;;;;;;6.40;5.00;;;;;;;25.42;38.48;101114.18;104710;1285;69535;-88
2023/08/13 05:48:41;;;;;;;5.70;5.10;;;;;;;25.42;38.51;101110.63;104879;1285;69268;-88
2023/08/13 05:53:49;;;;;;;7.40;5.00;;;;;;;25.41;38.36;101114.80;104471;1285;69275;-88
2023/08/13 05:56:15;;;;;;;5.80;4.70;;;;;;;25.42;38.51;101114.85;104606;1289;69232;-87
2023/08/13 05:58:40;;;;;;;6.80;5.20;;;;;;;25.42;38.53;101119.11;104627;1285;69282;-88
2023/08/13 06:01:06;;;;;;;7.00;5.00;;;;;;;25.42;38.63;101117.83;104323;1285;69279;-87
2023/08/13 06:03:32;;;;;;;6.40;4.90;;;;;;;25.42;38.38;101123.66;104655;1285;69280;-88
2023/08/13 06:05:58;;;;;;;6.40;4.50;;;;;;;25.42;38.24;101129.38;104582;1284;70348;-88
2023/08/13 06:08:24;;;;;;;6.50;4.60;;;;;;;25.42;38.10;101125.96;104536;1290;69352;-87
2023/08/13 06:10:49;;;;;;;7.70;4.90;;;;;;;25.42;38.26;101124.89;104678;1285;69093;-87
2023/08/13 06:13:15;;;;;;;4.90;4.40;;;;;;;25.42;38.29;101131.64;104607;1284;69192;-88
2023/08/13 06:15:41;;;;;;;5.30;4.70;;;;;;;25.43;37.96;101140.05;104643;1284;69258;-87
2023/08/13 06:18:15;;;;;;;6.80;4.40;;;;;;;25.42;37.96;101134.73;104337;1285;69113;-92
2023/08/13 06:20:42;;;;;;;5.60;4.60;;;;;;;25.43;37.91;101139.79;104336;1285;74787;-88
2023/08/13 06:23:08;;;;;;;5.00;4.50;;;;;;;25.42;37.93;101136.78;104552;1285;69376;-88
2023/08/13 06:25:33;;;;;;;6.10;4.90;;;;;;;25.43;37.91;101138.02;104669;1285;69254;-88
2023/08/13 06:27:59;;;;;;;5.50;5.00;;;;;;;25.44;37.98;101138.91;104627;1290;70391;-88
2023/08/13 06:30:24;;;;;;;6.60;4.60;;;;;;;25.44;37.90;101138.45;104762;1286;67279;-88
2023/08/13 06:32:50;;;;;;;6.30;4.80;;;;;;;25.46;37.84;101137.61;104106;1285;69236;-88
2023/08/13 06:35:15;;;;;;;5.10;4.50;;;;;;;25.46;38.12;101141.73;104478;1285;69695;-88
2023/08/13 06:37:41;;;;;;;5.20;4.40;;;;;;;25.47;38.06;101141.40;104739;1285;69257;-87
2023/08/13 06:40:07;;;;;;;5.30;4.70;;;;;;;25.48;38.02;101139.35;104711;1285;69288;-88
2023/08/13 06:42:33;;;;;;;6.90;5.00;;;;;;;25.49;37.90;101133.61;104410;1288;69129;-88
2023/08/13 06:45:17;;;;;;;5.10;4.60;;;;;;;25.50;37.80;101134.89;104648;1284;69338;-90
2023/08/13 06:47:42;;;;;;;5.10;4.40;;;;;;;25.51;37.69;101132.27;104362;1285;69225;-88
2023/08/13 06:50:08;;;;;;;5.20;4.70;;;;;;;25.52;37.94;101133.38;104602;1285;69267;-88
2023/08/13 06:52:34;;;;;;;6.20;5.00;;;;;;;25.52;37.70;101131.02;104463;1285;67335;-88
2023/08/13 06:54:59;;;;;;;6.00;4.20;;;;;;;25.53;37.75;101129.41;104535;1285;67332;-88
2023/08/13 06:57:25;;;;;;;5.50;4.30;;;;;;;25.54;37.59;101128.73;104661;1285;69362;-88
2023/08/13 06:59:50;;;;;;;4.80;4.30;;;;;;;25.54;37.77;101122.08;104606;1285;67141;-87
2023/08/13 07:02:24;;;;;;;4.50;4.10;;;;;;;25.54;37.84;101128.52;104769;1284;72903;-88
2023/08/13 07:04:50;;;;;;;5.70;4.80;;;;;;;25.55;37.74;101128.04;104858;1285;69221;-88
2023/08/13 07:07:16;;;;;;;4.90;4.30;;;;;;;25.55;37.54;101126.34;104386;1288;69980;-88
2023/08/13 07:09:41;;;;;;;5.00;4.50;;;;;;;25.56;37.51;101127.58;104598;1285;69259;-88
2023/08/13 07:12:07;;;;;;;5.40;4.20;;;;;;;25.57;37.36;101128.44;104775;1285;69224;-89
2023/08/13 07:14:33;;;;;;;7.20;4.20;;;;;;;25.58;37.49;101123.54;104415;1290;69313;-88
2023/08/13 07:16:59;;;;;;;5.20;4.20;;;;;;;25.59;37.44;101127.23;104558;1286;70284;-88
2023/08/13 07:19:24;;;;;;;6.80;4.30;;;;;;;25.59;37.57;101127.14;104772;1286;70415;-88
2023/08/13 07:21:50;;;;;;;6.00;4.30;;;;;;;25.60;37.56;101130.33;104719;1285;69231;-88
2023/08/13 07:24:15;;;;;;;5.10;4.30;;;;;;;25.60;37.47;101135.06;104780;1285;69271;-88
2023/08/13 07:26:41;;;;;;;6.70;4.40;;;;;;;25.62;37.27;101136.34;104565;1285;69238;-88
2023/08/13 07:29:07;;;;;;;5.50;3.90;;;;;;;25.62;37.17;101132.31;104697;1285;69277;-88
2023/08/13 07:31:34;;;;;;;4.80;4.30;;;;;;;25.63;37.24;101128.96;104647;1286;69250;-88
2023/08/13 07:34:00;;;;;;;4.70;4.30;;;;;;;25.63;37.29;101134.12;104712;1285;69286;-88
2023/08/13 07:36:26;;;;;;;5.40;4.00;;;;;;;25.64;37.07;101130.39;104521;1290;69328;-89
2023/08/13 07:41:26;;;;;;;5.10;4.10;;;;;;;25.65;37.04;101129.77;104636;1285;69251;-88
2023/08/13 07:43:52;;;;;;;5.40;4.00;;;;;;;25.66;37.03;101130.22;104943;1288;68324;-88
2023/08/13 07:46:17;;;;;;;5.50;4.30;;;;;;;25.67;37.11;101132.27;104546;1287;69274;-87
2023/08/13 07:48:43;;;;;;;4.80;4.00;;;;;;;25.68;36.98;101131.04;104488;1288;69246;-88
2023/08/13 07:51:08;;;;;;;6.10;4.20;;;;;;;25.68;37.11;101130.71;104689;1279;69257;-88
2023/08/13 07:53:34;;;;;;;4.90;3.90;;;;;;;25.70;36.89;101129.98;104595;1285;69637;-88
2023/08/13 07:56:00;;;;;;;4.10;3.70;;;;;;;25.70;36.76;101130.64;104697;1285;69318;-88
2023/08/13 07:58:25;;;;;;;5.10;4.10;;;;;;;25.71;36.89;101127.29;104718;1285;69699;-88
2023/08/13 08:00:51;;;;;;;5.10;4.30;;;;;;;25.71;36.93;101120.27;104676;1285;69647;-88
2023/08/13 08:03:16;;;;;;;4.90;3.80;;;;;;;25.72;36.94;101122.38;104784;1287;69280;-88
2023/08/13 08:08:15;;;;;;;4.70;4.20;;;;;;;25.73;36.84;101113.14;104756;1285;69250;-88
2023/08/13 08:10:40;;;;;;;4.20;3.80;;;;;;;25.73;36.92;101115.30;104801;1285;69644;-88
2023/08/13 08:13:06;;;;;;;4.20;3.80;;;;;;;25.74;36.82;101115.67;104911;1284;69256;-88
2023/08/13 08:15:32;;;;;;;5.80;4.10;;;;;;;25.75;36.57;101114.52;104922;1285;68437;-88
2023/08/13 08:17:57;;;;;;;4.70;4.00;;;;;;;25.76;36.66;101112.30;104848;1276;69185;-87
2023/08/13 08:20:23;;;;;;;4.80;3.70;;;;;;;25.76;36.75;101112.20;104723;1289;69117;-88
2023/08/13 08:22:49;;;;;;;4.20;3.80;;;;;;;25.77;36.68;101114.95;104731;1288;69180;-88
2023/08/13 08:25:14;;;;;;;4.70;4.00;;;;;;;25.77;36.55;101114.79;105062;1282;69192;-88
2023/08/13 08:27:40;;;;;;;4.20;3.80;;;;;;;25.77;36.56;101112.48;104732;1289;68063;-88
2023/08/13 08:30:06;;;;;;;4.80;4.20;;;;;;;25.79;36.72;101110.50;105069;1278;69255;-88
2023/08/13 08:35:05;;;;;;;6.60;3.80;;;;;;;25.79;36.51;101098.59;104992;1281;69077;-88
2023/08/13 08:37:32;;;;;;;4.40;3.80;;;;;;;25.80;36.42;101101.21;104851;1283;70398;-88
2023/08/13 08:39:59;;;;;;;5.10;4.20;;;;;;;25.80;36.30;101102.09;104826;1282;69193;-88
2023/08/13 08:42:25;;;;;;;4.20;3.70;;;;;;;25.81;36.44;101095.89;104826;1286;69279;-88
2023/08/13 08:44:51;;;;;;;4.30;3.70;;;;;;;25.82;36.48;101097.13;104758;1283;69324;-89
2023/08/13 08:47:16;;;;;;;4.00;3.60;;;;;;;25.83;36.12;101097.79;104650;1283;67285;-88
2023/08/13 08:49:43;;;;;;;4.20;3.70;;;;;;;25.83;36.42;101095.84;104700;1285;69208;-88
2023/08/13 08:52:09;;;;;;;5.50;3.90;;;;;;;25.84;36.33;101099.17;104669;1284;69268;-88
2023/08/13 08:54:39;;;;;;;5.10;3.60;;;;;;;25.83;36.34;101102.27;104547;1283;69262;-88
2023/08/13 08:57:05;;;;;;;;;;;;;;;25.85;36.30;101099.13;104854;1288;69196;-88
2023/08/13 08:59:39;;;;;;;4.70;3.70;;;;;;;25.82;36.23;101093.77;104559;1288;69297;-91
2023/08/13 09:02:05;;;;;;;4.70;3.70;;;;;;;25.83;36.27;101091.60;104664;1284;74789;-88
2023/08/13 09:04:30;;;;;;;4.30;3.60;;;;;;;25.84;36.23;101088.17;104889;1288;67236;-88
2023/08/13 09:06:57;;;;;;;4.70;3.70;;;;;;;25.85;36.26;101084.16;104727;1285;69327;-88
2023/08/13 09:09:24;;;;;;;3.90;3.50;;;;;;;25.86;36.36;101085.40;104868;1288;69243;-88
2023/08/13 09:11:50;;;;;;;4.50;3.70;;;;;;;25.87;36.19;101079.70;104839;1285;69163;-89
2023/08/13 09:14:16;;;;;;;4.80;3.90;;;;;;;25.88;36.20;101082.98;104621;1288;69182;-88
2023/08/13 09:16:49;;;;;;;4.40;4.00;;;;;;;25.88;36.28;101082.47;104848;1288;69186;-88
2023/08/13 09:19:15;;;;;;;4.20;3.60;;;;;;;25.89;36.20;101083.75;104816;1288;69307;-88
2023/08/13 09:21:47;;;;;;;4.10;3.60;;;;;;;25.90;36.31;101081.58;104781;1285;69273;-88
2023/08/13 09:24:12;;;;;;;4.20;3.70;;;;;;;25.89;36.15;101077.67;104843;1287;69059;-88
2023/08/13 09:26:38;;;;;;;4.30;3.60;;;;;;;25.90;35.94;101079.51;104830;1283;69276;-89
2023/08/13 09:29:09;;;;;;;3.90;3.50;;;;;;;25.91;36.16;101074.20;104472;1289;69298;-88
2023/08/13 09:31:35;;;;;;;3.70;3.40;;;;;;;25.91;36.24;101070.11;104931;1284;69146;-88
2023/08/13 09:34:00;;;;;;;4.10;3.70;;;;;;;25.92;36.01;101071.86;104853;1286;69362;-88
2023/08/13 09:36:27;;;;;;;4.30;3.60;;;;;;;25.91;36.08;101070.94;104698;1284;69335;-89
2023/08/13 09:38:53;;;;;;;4.50;3.50;;;;;;;25.90;36.05;101069.71;104842;1283;69207;-88
2023/08/13 09:44:07;;;;;;;4.20;3.80;;;;;;;25.88;35.91;101065.15;104296;1289;69735;-87
2023/08/13 09:46:33;;;;;;;4.30;3.50;;;;;;;25.89;36.03;101064.17;104498;1290;69189;-87
2023/08/13 09:48:58;;;;;;;3.90;3.50;;;;;;;25.89;36.00;101064.36;104251;1289;69283;-87
2023/08/13 09:51:29;;;;;;;4.10;3.40;;;;;;;25.89;36.17;101061.53;104539;1282;69254;-87
2023/08/13 09:54:00;;;;;;;3.80;3.50;;;;;;;25.90;36.11;101062.61;104467;1285;69205;-87
2023/08/13 09:56:27;;;;;;;4.00;3.60;;;;;;;25.90;36.05;101061.63;104519;1291;69289;-93
2023/08/13 09:58:52;;;;;;;4.40;3.70;;;;;;;25.90;35.77;101059.71;104496;1285;69206;-87
2023/08/13 10:01:18;;;;;;;4.50;3.50;;;;;;;25.92;35.97;101060.73;104808;1285;69190;-87
2023/08/13 10:03:43;;;;;;;3.40;3.00;;;;;;;25.93;36.01;101059.42;104574;1285;69269;-87
2023/08/13 10:06:09;;;;;;;3.70;3.30;;;;;;;25.94;36.01;101057.41;104397;1285;69220;-87
2023/08/13 10:08:35;;;;;;;5.00;3.50;;;;;;;25.94;35.86;101055.09;104514;1289;70423;-88
2023/08/13 10:11:00;;;;;;;4.00;3.50;;;;;;;25.94;35.92;101047.80;104611;1290;69177;-87
2023/08/13 10:13:26;;;;;;;3.90;3.50;;;;;;;25.95;35.66;101046.82;104545;1290;69328;-87
2023/08/13 10:15:51;;;;;;;3.90;3.40;;;;;;;25.96;35.79;101044.17;104569;1285;69242;-88
2023/08/13 10:18:17;;;;;;;3.80;3.50;;;;;;;25.96;35.79;101041.24;104559;1285;69187;-87
2023/08/13 10:20:45;;;;;;;3.40;3.10;;;;;;;25.96;35.89;101035.00;104623;1285;69410;-88
2023/08/13 10:23:13;;;;;;;3.50;3.10;;;;;;;25.97;35.55;101036.90;104402;1286;73378;-91
2023/08/13 10:25:39;;;;;;;3.70;3.30;;;;;;;25.98;35.60;101037.11;104527;1285;69198;-88
2023/08/13 10:28:21;;;;;;;3.60;3.30;;;;;;;25.97;35.57;101036.79;104678;1285;69183;-88
2023/08/13 10:30:47;;;;;;;3.80;3.20;;;;;;;25.97;35.54;101035.81;104438;1285;69697;-88
2023/08/13 10:33:13;;;;;;;3.50;3.10;;;;;;;25.97;35.44;101034.07;104583;1285;69206;-88
2023/08/13 10:35:39;;;;;;;3.80;3.30;;;;;;;25.96;35.47;101032.31;104625;1285;69183;-88
2023/08/13 10:40:58;;;;;;;3.60;3.20;;;;;;;25.96;35.32;101029.28;104549;1285;69248;-88
2023/08/13 10:43:23;;;;;;;3.80;3.20;;;;;;;25.96;35.40;101032.95;104493;1292;69235;-88
2023/08/13 10:45:49;;;;;;;3.50;3.20;;;;;;;25.96;35.28;101032.84;104379;1285;69417;-88
2023/08/13 10:48:16;;;;;;;3.60;3.30;;;;;;;25.96;35.36;101033.41;104343;1286;69169;-88
2023/08/13 10:50:42;;;;;;;3.40;3.00;;;;;;;25.97;35.42;101025.41;104347;1285;69233;-88
2023/08/13 10:53:21;;;;;;;3.60;3.20;;;;;;;25.97;35.39;101025.04;104662;1288;69257;-93
2023/08/13 10:55:51;;;;;;;3.60;3.20;;;;;;;25.98;35.33;101022.40;104185;1288;69097;-88
2023/08/13 10:58:27;;;;;;;3.50;2.90;;;;;;;26.00;35.26;101019.45;104495;1288;69090;-88
2023/08/13 11:01:12;;;;;;;3.60;3.30;;;;;;;26.00;35.41;101015.55;104432;1286;73833;-88
2023/08/13 11:03:56;;;;;;;4.70;3.10;;;;;;;26.01;35.28;101008.29;104518;1288;69254;-88
2023/08/13 11:06:22;;;;;;;3.40;3.10;;;;;;;26.02;35.36;101003.52;104636;1286;69162;-89
2023/08/13 11:08:48;;;;;;;4.90;3.30;;;;;;;26.03;35.31;101007.33;104993;1287;69176;-89
2023/08/13 11:11:17;;;;;;;5.40;3.50;;;;;;;26.04;35.34;101012.94;104528;1286;69130;-89
2023/08/13 11:13:43;;;;;;;3.80;3.40;;;;;;;26.04;35.28;101010.57;104233;1287;73573;-88
2023/08/13 11:16:09;;;;;;;3.50;3.20;;;;;;;26.04;35.33;101007.67;104387;1288;69264;-88
2023/08/13 11:18:34;;;;;;;4.10;3.00;;;;;;;26.04;35.16;100999.38;104645;1289;69180;-88
2023/08/13 11:21:00;;;;;;;3.60;3.30;;;;;;;26.04;35.05;100996.14;104525;1293;69184;-89
2023/08/13 11:23:25;;;;;;;3.30;3.00;;;;;;;26.04;35.10;100992.67;105487;1285;69380;-89
2023/08/13 11:25:52;;;;;;;3.60;3.20;;;;;;;26.05;35.09;100997.61;104528;1285;69248;-88
2023/08/13 11:28:22;;;;;;;3.60;3.20;;;;;;;26.05;35.10;100991.69;105469;1285;69257;-88
2023/08/13 11:30:47;;;;;;;3.90;3.50;;;;;;;26.06;35.27;100986.30;106370;1286;66659;-89
2023/08/13 11:33:14;;;;;;;3.90;3.30;;;;;;;26.07;35.09;100983.14;105886;1287;66761;-88
2023/08/13 11:35:39;;;;;;;3.10;2.80;;;;;;;26.09;35.25;100981.38;105091;1288;69263;-88
2023/08/13 11:38:05;;;;;;;3.60;3.20;;;;;;;26.10;35.31;100975.69;106694;1286;67220;-92
2023/08/13 11:40:31;;;;;;;3.90;3.10;;;;;;;26.11;35.12;100975.77;106165;1290;69171;-88
2023/08/13 11:42:59;;;;;;;3.70;3.30;;;;;;;26.12;35.12;100969.84;106193;1286;66533;-88